Surprise, AZ

5:56 AM MST on July 07, 2015 (GMT -0700)
Kingswood Parke | | Change Station
CLOSE
Current Station
Personal Weather Station
Location: Surprise, AZ
Elevation: 1227 ft
Nearby Weather Stations

Elev 1227 ft 33.64 °N, 112.37 °W | Updated 2 seconds ago

Clear
Clear
82.0 °F
Feels Like 84 °F
N
1.2
Wind Variable Wind from SE
Gusts 0.0 mph

Today
High -- | Low -- °F
--% Chance of Precip.
Yesterday
High -- | Low -- °F
Precip. -- in
5:25 AM 7:43 PM
Waning Gibbous, 65% visible
Pressure 29.82 in
Visibility 10.0 miles
Clouds Clear
Heat Index 84 °F
Dew Point 66 °F
Humidity 58%
Rainfall 0.00 in
Snow Depth Not available.
UV 0 out of 12
Pollen 3.60 out of 12
Air Quality Not available.
Flu Activity Not available.
METAR KLUF 071158Z AUTO 29001KT 10SM CLR 29/17 A2986 RMK AO2 SLP096 53005

More Conditions Fewer Conditions

Pressure 29.82 in
Visibility 10.0 miles
Clouds Clear
Heat Index 84 °F
Dew Point 66 °F
Humidity 58%
Rainfall 0.00 in
Snow Depth Not available.
UV 0 out of 12
Pollen 3.60 out of 12
Air Quality Not available.
Flu Activity Not available.
METAR KLUF 071158Z AUTO 29001KT 10SM CLR 29/17 A2986 RMK AO2 SLP096 53005

More Conditions Fewer Conditions

10-Day Weather Forecast

×

Almanac

Astronomy

Jul. 07, 2015 Rise Set
Actual Time
Civil Twilight
Nautical Twilight
Astronomical Twilight
Moon
Length of Visible Light
Length of Day
Tomorrow will be .
, % of the Moon is Illuminated

Today's Extremes

State Highs State Lows

Community

WunderPhotos

Upload Photos

1,835,788 photos uploaded!

WunderBlogs® & News

Nearby

Air Quality

  Air Quality AQ Index Pollutant
Not available.

Snow Depth

Station Depth Elevation

Earthquake Activity

City Distance Mag. Time & Date
Minimum magnitude displayed is 2.5.

Coastal Water Temperatures

Place Temperature

Stations

Nearby Weather Stations

Station Location Temp. Windchill Dew Point Humidity Wind Precip. Elev Updated Type